Time;durP1;ratioP1;P1;durP2;ratioP2;P2;SDS_P1;SDS_P2;PMS_P1;PMS_P2;Temp;Humidity;BMP_temperature;BMP_pressure;BME280_temperature;BME280_humidity;BME280_pressure;Samples;Min_cycle;Max_cycle;Signal;HPM_P1;HPM_P2
2021/01/24 00:02:04;;;;;;;1.75;1.17;;;12.40;76.50;;;;;;5080128;28;20497;-44
2021/01/24 00:04:30;;;;;;;;;;;12.40;76.50;;;;;;5084175;28;20084;-42
2021/01/24 00:06:56;;;;;;;1.73;1.17;;;12.40;76.50;;;;;;5077834;28;19927;-43
2021/01/24 00:09:22;;;;;;;1.33;1.20;;;12.40;76.40;;;;;;5077194;28;20024;-42
2021/01/24 00:11:48;;;;;;;1.42;0.93;;;12.40;76.40;;;;;;5077480;28;20028;-44
2021/01/24 00:14:14;;;;;;;2.25;1.10;;;12.40;76.30;;;;;;5064214;28;20028;-41
2021/01/24 00:16:40;;;;;;;2.25;1.40;;;12.40;76.20;;;;;;5063658;28;20512;-41
2021/01/24 00:19:06;;;;;;;2.33;1.38;;;12.40;76.20;;;;;;5063928;28;20043;-44
2021/01/24 00:21:33;;;;;;;2.30;1.20;;;12.40;76.10;;;;;;5063802;28;20024;-43
2021/01/24 00:23:59;;;;;;;4.28;1.67;;;12.30;76.10;;;;;;5063737;28;20032;-43
2021/01/24 00:26:25;;;;;;;2.88;1.48;;;12.30;75.90;;;;;;5063694;28;20029;-42
2021/01/24 00:28:51;;;;;;;2.75;1.33;;;12.40;75.80;;;;;;5063866;28;20083;-42
2021/01/24 00:31:17;;;;;;;3.55;1.55;;;12.40;76.00;;;;;;5063785;28;20075;-42
2021/01/24 00:33:43;;;;;;;2.45;1.20;;;12.30;75.70;;;;;;5073507;28;20055;-42
2021/01/24 00:36:11;;;;;;;1.98;1.20;;;12.30;75.70;;;;;;5103448;28;20028;-42
2021/01/24 00:38:38;;;;;;;2.38;1.20;;;12.30;75.80;;;;;;5102235;28;20063;-42
2021/01/24 00:41:04;;;;;;;1.70;1.20;;;12.30;75.80;;;;;;5085906;28;20032;-42
2021/01/24 00:43:31;;;;;;;2.63;1.43;;;12.30;75.80;;;;;;5073298;28;20062;-41
2021/01/24 00:45:58;;;;;;;2.38;1.38;;;12.30;75.70;;;;;;5079661;28;20272;-42
2021/01/24 00:48:25;;;;;;;2.15;1.05;;;12.30;75.50;;;;;;5077688;28;20045;-44
2021/01/24 00:50:51;;;;;;;1.30;1.20;;;12.30;75.90;;;;;;5078153;28;20055;-45
2021/01/24 00:53:18;;;;;;;1.90;1.20;;;12.30;75.50;;;;;;5076349;28;20075;-42
2021/01/24 00:55:44;;;;;;;3.33;1.23;;;12.20;75.10;;;;;;5078682;28;20027;-42
2021/01/24 00:58:11;;;;;;;1.85;1.10;;;12.20;75.30;;;;;;5075833;28;20044;-42
2021/01/24 01:00:37;;;;;;;1.48;1.00;;;12.20;75.30;;;;;;5080322;28;20107;-42
2021/01/24 01:03:03;;;;;;;1.85;1.10;;;12.20;75.20;;;;;;5075296;28;20051;-40
2021/01/24 01:05:30;;;;;;;1.42;1.10;;;12.20;75.10;;;;;;5078992;28;20029;-43
2021/01/24 01:07:56;;;;;;;2.10;0.82;;;12.20;74.80;;;;;;5074736;28;20029;-44
2021/01/24 01:10:22;;;;;;;1.77;1.00;;;12.20;75.10;;;;;;5082999;28;20092;-42
2021/01/24 01:12:48;;;;;;;2.47;1.30;;;12.10;75.00;;;;;;5069711;28;20032;-42
2021/01/24 01:15:15;;;;;;;1.50;1.20;;;12.20;75.20;;;;;;5063226;28;20413;-42
2021/01/24 01:17:41;;;;;;;1.67;1.13;;;12.10;74.60;;;;;;5061551;28;20055;-43
2021/01/24 01:20:08;;;;;;;1.88;1.30;;;12.10;74.70;;;;;;5062954;28;20025;-41
2021/01/24 01:22:34;;;;;;;;;;;12.10;74.60;;;;;;5095449;28;20083;-41
2021/01/24 01:25:01;;;;;;;1.65;1.45;;;12.10;74.40;;;;;;5063153;28;19909;-42
2021/01/24 01:27:27;;;;;;;2.85;1.35;;;12.10;74.60;;;;;;5062560;28;20040;-42
2021/01/24 01:29:53;;;;;;;2.15;1.23;;;12.00;74.40;;;;;;5061746;28;20025;-41
2021/01/24 01:32:20;;;;;;;3.30;1.35;;;12.10;74.40;;;;;;5062982;28;20025;-42
2021/01/24 01:34:46;;;;;;;2.58;1.40;;;12.10;74.50;;;;;;5090042;28;20058;-42
2021/01/24 01:37:12;;;;;;;3.13;1.48;;;12.00;74.40;;;;;;5102706;28;20046;-42
2021/01/24 01:39:38;;;;;;;2.22;1.23;;;12.00;74.20;;;;;;5103207;28;20044;-41
2021/01/24 01:42:16;;;;;;;2.28;1.45;;;12.00;74.40;;;;;;5102459;28;20035;-41
2021/01/24 01:44:44;;;;;;;1.40;1.15;;;12.00;74.40;;;;;;5103236;28;20042;-41
2021/01/24 01:47:10;;;;;;;1.33;1.10;;;12.00;74.50;;;;;;5102994;28;20028;-44
2021/01/24 01:49:37;;;;;;;1.83;1.20;;;12.00;74.50;;;;;;5101842;28;20046;-42
2021/01/24 01:52:03;;;;;;;1.83;1.10;;;11.90;74.40;;;;;;5101801;28;20032;-42
2021/01/24 01:54:29;;;;;;;2.58;1.50;;;11.90;74.20;;;;;;5101672;28;20287;-42
2021/01/24 01:56:56;;;;;;;1.67;1.35;;;11.90;74.50;;;;;;5084185;28;20040;-42
2021/01/24 01:59:22;;;;;;;1.67;1.20;;;11.90;74.50;;;;;;5081252;28;20048;-41
2021/01/24 02:02:03;;;;;;;1.50;1.10;;;11.90;74.20;;;;;;5082748;28;20039;-43
2021/01/24 02:04:50;;;;;;;1.65;1.20;;;11.90;74.50;;;;;;5082880;28;20432;-43
2021/01/24 02:07:44;;;;;;;2.58;1.40;;;11.90;74.70;;;;;;5081128;28;20044;-41
2021/01/24 02:10:15;;;;;;;2.25;1.20;;;11.90;74.40;;;;;;5101539;28;20040;-42
2021/01/24 02:13:16;;;;;;;1.75;1.40;;;11.80;74.70;;;;;;5081109;28;20054;-41
2021/01/24 02:15:43;;;;;;;2.80;1.65;;;11.80;74.30;;;;;;5081356;28;20040;-43
2021/01/24 02:18:09;;;;;;;1.80;1.38;;;11.80;74.40;;;;;;5101738;28;20159;-41
2021/01/24 02:21:12;;;;;;;1.25;1.15;;;11.80;74.60;;;;;;5084797;28;20463;-45
2021/01/24 02:23:38;;;;;;;1.63;1.23;;;11.80;74.50;;;;;;5086188;28;20047;-42
2021/01/24 02:26:19;;;;;;;2.47;1.58;;;11.80;74.60;;;;;;5102748;28;20031;-42
2021/01/24 02:29:19;;;;;;;1.50;1.10;;;11.70;74.50;;;;;;5104743;28;20087;-42
2021/01/24 02:31:46;;;;;;;1.50;1.40;;;11.70;74.30;;;;;;5106363;28;20028;-41
2021/01/24 02:34:14;;;;;;;1.55;1.27;;;11.70;74.20;;;;;;5106441;28;20410;-42
2021/01/24 02:36:41;;;;;;;1.63;1.30;;;11.70;74.30;;;;;;5104681;28;20058;-42
2021/01/24 02:39:07;;;;;;;1.67;1.30;;;11.70;74.50;;;;;;5105991;28;20035;-41
2021/01/24 02:41:34;;;;;;;1.80;1.25;;;11.70;74.20;;;;;;5105137;28;20020;-41
2021/01/24 02:44:00;;;;;;;2.10;1.42;;;11.70;74.30;;;;;;5104950;28;20131;-43
2021/01/24 02:46:26;;;;;;;1.88;1.50;;;11.60;74.30;;;;;;5084554;28;20028;-42
2021/01/24 02:48:52;;;;;;;2.45;1.48;;;11.60;74.30;;;;;;5097142;28;20020;-43
2021/01/24 02:51:19;;;;;;;2.60;1.40;;;11.60;74.20;;;;;;5084079;28;20020;-43
2021/01/24 02:53:46;;;;;;;2.75;1.60;;;11.60;74.20;;;;;;5084403;28;20126;-42
2021/01/24 02:56:12;;;;;;;1.67;1.30;;;11.60;74.20;;;;;;5085387;28;20032;-41
2021/01/24 02:58:38;;;;;;;1.70;1.20;;;11.60;74.20;;;;;;5084925;28;20056;-43
2021/01/24 03:01:04;;;;;;;2.13;1.60;;;11.60;74.30;;;;;;5085565;28;20033;-42
2021/01/24 03:03:30;;;;;;;1.73;1.33;;;11.50;74.50;;;;;;5084260;28;20040;-42
2021/01/24 03:05:57;;;;;;;2.92;1.77;;;11.50;74.40;;;;;;5085924;28;20029;-41
2021/01/24 03:08:23;;;;;;;2.28;1.35;;;11.50;74.20;;;;;;5085170;28;20393;-42
2021/01/24 03:10:49;;;;;;;1.83;1.40;;;11.50;74.10;;;;;;5085785;28;20028;-42
2021/01/24 03:13:24;;;;;;;2.45;1.40;;;11.50;74.20;;;;;;5086750;28;20052;-41
2021/01/24 03:15:51;;;;;;;2.08;1.35;;;11.50;74.30;;;;;;5085526;28;20020;-42
2021/01/24 03:18:19;;;;;;;1.48;1.30;;;11.50;74.30;;;;;;5083661;28;20036;-41
2021/01/24 03:20:45;;;;;;;2.25;1.50;;;11.40;74.20;;;;;;5083830;28;20029;-42
2021/01/24 03:23:12;;;;;;;1.65;1.38;;;11.50;74.40;;;;;;5083734;28;20509;-43
2021/01/24 03:25:39;;;;;;;2.30;1.45;;;11.40;74.40;;;;;;5083194;28;20039;-41
2021/01/24 03:28:07;;;;;;;2.28;1.50;;;11.40;74.30;;;;;;5083551;28;20077;-43
2021/01/24 03:30:36;;;;;;;2.25;1.30;;;11.40;74.20;;;;;;5083311;28;20024;-41
2021/01/24 03:33:02;;;;;;;1.70;1.50;;;11.40;74.50;;;;;;5084841;28;20028;-41
2021/01/24 03:35:29;;;;;;;2.13;1.57;;;11.40;74.50;;;;;;5083445;28;20108;-42
2021/01/24 03:37:55;;;;;;;2.95;1.60;;;11.40;74.50;;;;;;5084595;28;20292;-42
2021/01/24 03:40:21;;;;;;;1.58;1.35;;;11.30;74.30;;;;;;5086190;28;20050;-41
2021/01/24 03:42:47;;;;;;;2.20;1.20;;;11.30;74.50;;;;;;5104941;28;20085;-41
2021/01/24 03:45:14;;;;;;;2.03;1.58;;;11.30;74.50;;;;;;5104960;28;20016;-43
2021/01/24 03:47:40;;;;;;;2.08;1.42;;;11.30;74.40;;;;;;5104955;28;20024;-42
2021/01/24 03:50:06;;;;;;;2.00;1.60;;;11.30;74.30;;;;;;5104769;28;20800;-42
2021/01/24 03:52:33;;;;;;;1.85;1.60;;;11.30;74.50;;;;;;5104714;28;20031;-41
2021/01/24 03:54:59;;;;;;;2.10;1.60;;;11.30;74.50;;;;;;5104905;28;20020;-42
2021/01/24 03:57:26;;;;;;;3.45;1.65;;;11.30;74.30;;;;;;5104535;28;20081;-44
2021/01/24 03:59:53;;;;;;;2.30;1.13;;;11.30;74.50;;;;;;5104418;28;20043;-42
2021/01/24 04:02:20;;;;;;;2.08;1.60;;;11.20;74.60;;;;;;5085899;28;20029;-43
2021/01/24 04:04:47;;;;;;;1.67;1.48;;;11.20;74.30;;;;;;5084194;28;20025;-43
2021/01/24 04:07:13;;;;;;;2.67;1.67;;;11.20;74.50;;;;;;5084248;28;20028;-42
2021/01/24 04:09:39;;;;;;;2.00;1.40;;;11.20;74.50;;;;;;5083722;28;20283;-41
2021/01/24 04:12:06;;;;;;;2.40;1.55;;;11.20;74.50;;;;;;5092437;28;20281;-41
2021/01/24 04:14:33;;;;;;;3.35;1.60;;;11.20;74.50;;;;;;5083891;28;20023;-42
2021/01/24 04:16:59;;;;;;;1.98;1.65;;;11.20;74.50;;;;;;5084070;28;20082;-42
2021/01/24 04:19:25;;;;;;;2.50;1.52;;;11.20;74.60;;;;;;5083697;28;20047;-44
2021/01/24 04:21:51;;;;;;;2.28;1.70;;;11.20;74.50;;;;;;5083719;28;20052;-41
2021/01/24 04:24:17;;;;;;;2.08;1.63;;;11.20;74.70;;;;;;5083813;28;20832;-41
2021/01/24 04:26:43;;;;;;;1.80;1.20;;;11.20;74.60;;;;;;5083798;28;20020;-42
2021/01/24 04:29:09;;;;;;;2.55;1.40;;;11.20;74.70;;;;;;5083644;28;20039;-43
2021/01/24 04:31:35;;;;;;;1.70;1.60;;;11.10;74.50;;;;;;5082228;28;20029;-43
2021/01/24 04:34:02;;;;;;;2.03;1.83;;;11.10;74.70;;;;;;5083713;28;20074;-41
2021/01/24 04:36:28;;;;;;;1.88;1.70;;;11.10;74.60;;;;;;5083445;28;20035;-42
2021/01/24 04:38:54;;;;;;;2.40;1.70;;;11.10;74.60;;;;;;5082663;28;20040;-43
2021/01/24 04:41:20;;;;;;;1.88;1.60;;;11.10;74.60;;;;;;5090785;28;20031;-41
2021/01/24 04:43:46;;;;;;;2.30;1.60;;;11.10;74.60;;;;;;5102436;28;20027;-41
2021/01/24 04:46:13;;;;;;;2.00;1.48;;;11.10;74.70;;;;;;5102507;28;20028;-41
2021/01/24 04:48:39;;;;;;;2.00;1.40;;;11.10;74.60;;;;;;5102306;28;20028;-44
2021/01/24 04:51:05;;;;;;;2.33;1.83;;;11.10;74.70;;;;;;5103389;28;20043;-43
2021/01/24 04:53:32;;;;;;;2.15;1.50;;;11.00;74.60;;;;;;5102225;28;20054;-41
2021/01/24 04:56:02;;;;;;;1.90;1.48;;;11.00;74.70;;;;;;5093204;28;20023;-41
2021/01/24 04:58:28;;;;;;;2.17;1.70;;;11.00;74.70;;;;;;5074733;28;20131;-41
2021/01/24 05:00:55;;;;;;;2.17;1.80;;;11.00;74.80;;;;;;5081688;28;20042;-41
2021/01/24 05:03:21;;;;;;;2.65;1.40;;;11.00;74.70;;;;;;5082996;28;20366;-41
2021/01/24 05:05:47;;;;;;;2.45;1.60;;;11.00;74.60;;;;;;5083180;28;20066;-41
2021/01/24 05:08:13;;;;;;;2.00;1.50;;;11.00;74.70;;;;;;5083281;28;20484;-40
2021/01/24 05:10:40;;;;;;;2.13;1.60;;;11.00;74.60;;;;;;5081900;28;20040;-41
2021/01/24 05:13:06;;;;;;;2.22;1.60;;;11.00;74.70;;;;;;5086689;28;20111;-42
2021/01/24 05:15:32;;;;;;;2.15;1.80;;;11.00;74.80;;;;;;5085655;28;20024;-42
2021/01/24 05:18:00;;;;;;;2.10;1.58;;;11.00;74.70;;;;;;5065080;28;20115;-42
2021/01/24 05:20:30;;;;;;;1.98;1.38;;;11.00;74.70;;;;;;5082958;28;20055;-42
2021/01/24 05:22:57;;;;;;;2.20;1.48;;;10.90;74.70;;;;;;5082756;28;20091;-41
2021/01/24 05:25:27;;;;;;;2.30;1.73;;;10.90;74.60;;;;;;5083255;28;20158;-44
2021/01/24 05:27:53;;;;;;;2.00;1.67;;;10.90;74.60;;;;;;5083075;28;20120;-42
2021/01/24 05:30:21;;;;;;;2.60;1.60;;;10.90;74.60;;;;;;5082767;28;20111;-42
2021/01/24 05:32:47;;;;;;;1.50;1.40;;;10.90;75.00;;;;;;5081742;28;20060;-41
2021/01/24 05:35:14;;;;;;;2.33;1.90;;;10.90;74.70;;;;;;5083071;28;20024;-43
2021/01/24 05:37:40;;;;;;;3.10;1.90;;;10.90;74.80;;;;;;5082817;28;20032;-42
2021/01/24 05:40:07;;;;;;;2.75;1.77;;;10.90;74.80;;;;;;5065468;28;20295;-41
2021/01/24 05:42:35;;;;;;;2.25;1.80;;;10.90;74.70;;;;;;5067608;28;20032;-41
2021/01/24 05:45:01;;;;;;;;;;;10.90;74.80;;;;;;5063409;28;20036;-41
2021/01/24 05:47:31;;;;;;;2.35;1.63;;;10.90;74.80;;;;;;5062834;28;19909;-42
2021/01/24 05:49:57;;;;;;;1.88;1.65;;;10.90;74.80;;;;;;5064030;28;20029;-43
2021/01/24 05:52:23;;;;;;;2.28;1.40;;;10.90;74.80;;;;;;5086372;28;20040;-41
2021/01/24 05:54:50;;;;;;;2.70;2.03;;;10.90;74.90;;;;;;5065346;28;20027;-43
2021/01/24 05:57:16;;;;;;;2.72;1.95;;;10.90;74.90;;;;;;5066425;28;20041;-44
2021/01/24 05:59:53;;;;;;;2.47;1.57;;;10.80;74.80;;;;;;5066515;28;20044;-43
2021/01/24 06:02:20;;;;;;;2.17;1.73;;;10.80;74.90;;;;;;5066127;28;20025;-41
2021/01/24 06:04:48;;;;;;;2.15;1.73;;;10.80;74.70;;;;;;5066539;28;20025;-41
2021/01/24 06:07:14;;;;;;;2.22;1.73;;;10.80;74.70;;;;;;5066319;28;20025;-42
2021/01/24 06:09:40;;;;;;;2.17;1.70;;;10.80;74.80;;;;;;5066516;28;20028;-41
2021/01/24 06:12:10;;;;;;;3.45;2.03;;;10.80;74.70;;;;;;5073312;28;20036;-42
2021/01/24 06:14:39;;;;;;;1.90;1.60;;;10.80;74.70;;;;;;5066252;28;20047;-43
2021/01/24 06:17:36;;;;;;;2.40;1.77;;;10.80;74.90;;;;;;5064897;28;20123;-41
2021/01/24 06:20:03;;;;;;;3.33;1.98;;;10.80;74.90;;;;;;5064983;28;20033;-42
2021/01/24 06:22:45;;;;;;;3.55;1.73;;;10.80;74.90;;;;;;5065956;28;20064;-42
2021/01/24 06:25:17;;;;;;;2.20;1.70;;;10.80;74.90;;;;;;5064832;28;20086;-40
2021/01/24 06:27:47;;;;;;;1.98;1.70;;;10.80;74.90;;;;;;5065758;28;20025;-43
2021/01/24 06:30:14;;;;;;;3.50;1.80;;;10.80;74.90;;;;;;5064767;28;20029;-42
2021/01/24 06:32:41;;;;;;;2.33;1.77;;;10.80;74.90;;;;;;5064119;28;20029;-41
2021/01/24 06:35:24;;;;;;;3.30;1.83;;;10.80;74.90;;;;;;5064668;28;20032;-41
2021/01/24 06:37:52;;;;;;;2.42;1.77;;;10.70;74.90;;;;;;5065572;28;20037;-41
2021/01/24 06:40:25;;;;;;;1.55;1.35;;;10.70;74.90;;;;;;5069319;28;20020;-42
2021/01/24 06:43:01;;;;;;;3.05;2.20;;;10.70;74.90;;;;;;5085569;28;20492;-41
2021/01/24 06:45:27;;;;;;;2.67;1.90;;;10.70;75.00;;;;;;5084514;28;20036;-41
2021/01/24 06:47:57;;;;;;;2.75;1.70;;;10.70;75.00;;;;;;5102396;28;20046;-42
2021/01/24 06:50:49;;;;;;;2.22;1.67;;;10.70;75.00;;;;;;5106024;28;20483;-41
2021/01/24 06:53:18;;;;;;;2.92;1.55;;;10.70;74.90;;;;;;5082891;28;20032;-42
2021/01/24 06:56:08;;;;;;;2.53;1.60;;;10.70;75.80;;;;;;5085730;28;20036;-42
2021/01/24 06:58:35;;;;;;;2.67;1.88;;;10.70;75.00;;;;;;5085383;28;20056;-40
2021/01/24 07:01:27;;;;;;;2.40;1.52;;;10.70;75.00;;;;;;5084625;28;20070;-41
2021/01/24 07:04:20;;;;;;;2.67;1.75;;;10.70;75.10;;;;;;5085181;28;20055;-41
2021/01/24 07:06:47;;;;;;;2.92;1.98;;;10.70;75.10;;;;;;5085227;28;20082;-43
2021/01/24 07:09:25;;;;;;;2.38;1.88;;;10.70;75.20;;;;;;5085288;28;20027;-41
2021/01/24 07:12:02;;;;;;;3.00;2.00;;;10.70;75.00;;;;;;5090083;28;20043;-44
2021/01/24 07:14:37;;;;;;;2.40;1.83;;;10.70;75.10;;;;;;5085089;28;20043;-41
2021/01/24 07:17:06;;;;;;;2.58;1.80;;;10.70;75.10;;;;;;5085126;28;20031;-41
2021/01/24 07:19:32;;;;;;;2.97;1.80;;;10.60;75.10;;;;;;5085249;28;20113;-41
2021/01/24 07:21:59;;;;;;;2.30;1.98;;;10.60;75.10;;;;;;5083502;28;20021;-42
2021/01/24 07:24:25;;;;;;;2.83;1.70;;;10.60;75.20;;;;;;5083718;28;20036;-41
2021/01/24 07:26:55;;;;;;;2.67;1.75;;;10.60;75.20;;;;;;5085002;28;20123;-43
2021/01/24 07:29:28;;;;;;;2.75;1.88;;;10.60;75.20;;;;;;5066825;28;20556;-41
2021/01/24 07:31:54;;;;;;;2.33;1.70;;;10.60;75.20;;;;;;5083624;28;20485;-42
2021/01/24 07:34:23;;;;;;;2.70;1.75;;;10.60;75.20;;;;;;5084633;28;20036;-43
2021/01/24 07:36:50;;;;;;;2.83;1.90;;;10.60;75.20;;;;;;5083484;28;20488;-42
2021/01/24 07:39:17;;;;;;;2.45;1.98;;;10.60;75.10;;;;;;5066882;28;20680;-42
2021/01/24 07:41:43;;;;;;;2.50;2.00;;;10.60;75.20;;;;;;5084043;28;20043;-42
2021/01/24 07:44:10;;;;;;;3.53;1.88;;;10.60;75.20;;;;;;5084270;28;20029;-42
2021/01/24 07:46:36;;;;;;;2.20;1.90;;;10.60;75.30;;;;;;5084739;28;20028;-41
2021/01/24 07:49:03;;;;;;;2.35;1.63;;;10.60;75.20;;;;;;5083418;28;20054;-41
2021/01/24 07:51:29;;;;;;;1.77;1.48;;;10.60;75.20;;;;;;5084659;28;20020;-41
2021/01/24 07:53:56;;;;;;;2.63;1.90;;;10.60;76.10;;;;;;5084167;28;20493;-41
2021/01/24 07:56:22;;;;;;;2.60;2.00;;;10.60;75.30;;;;;;5084315;28;20031;-41
2021/01/24 07:58:49;;;;;;;2.50;1.73;;;10.50;75.20;;;;;;5082782;28;20047;-42
2021/01/24 08:01:15;;;;;;;2.47;1.85;;;10.50;75.20;;;;;;5083055;28;20033;-42
2021/01/24 08:03:42;;;;;;;1.88;1.52;;;10.50;75.30;;;;;;5082838;28;20107;-42
2021/01/24 08:06:12;;;;;;;4.87;2.10;;;10.50;75.10;;;;;;5084206;28;20104;-41
2021/01/24 08:08:47;;;;;;;2.47;1.80;;;10.50;75.30;;;;;;5084000;28;20039;-41
2021/01/24 08:11:14;;;;;;;2.08;1.85;;;10.50;75.20;;;;;;5084669;28;20055;-42
2021/01/24 08:13:41;;;;;;;1.87;1.60;;;10.50;75.20;;;;;;5079562;28;20095;-41
2021/01/24 08:16:21;;;;;;;2.10;1.67;;;10.50;75.40;;;;;;5075451;28;20322;-40
2021/01/24 08:18:48;;;;;;;2.40;1.90;;;10.50;75.40;;;;;;5070842;28;20097;-42
2021/01/24 08:21:15;;;;;;;2.88;1.58;;;10.50;75.40;;;;;;5078283;28;20589;-42
2021/01/24 08:23:41;;;;;;;2.15;1.60;;;10.40;75.20;;;;;;5080026;28;20081;-41
2021/01/24 08:26:08;;;;;;;3.00;2.10;;;10.40;75.20;;;;;;5073941;28;20098;-44
2021/01/24 08:28:34;;;;;;;2.20;1.50;;;10.40;75.30;;;;;;5068973;28;20039;-41
2021/01/24 08:31:01;;;;;;;2.30;1.60;;;10.40;75.30;;;;;;5081451;28;20024;-41
2021/01/24 08:33:27;;;;;;;2.72;1.73;;;10.40;75.40;;;;;;5077377;28;20020;-41
2021/01/24 08:35:53;;;;;;;2.70;1.90;;;10.40;76.00;;;;;;5080214;28;20052;-45
2021/01/24 08:38:20;;;;;;;2.63;1.20;;;10.40;75.30;;;;;;5077167;28;20060;-41
2021/01/24 08:40:47;;;;;;;2.17;1.90;;;10.40;75.40;;;;;;5079671;28;20266;-41
2021/01/24 08:43:15;;;;;;;2.05;1.85;;;10.40;75.30;;;;;;5082880;28;20031;-43
2021/01/24 08:45:41;;;;;;;2.15;1.58;;;10.40;75.40;;;;;;5065491;28;20035;-41
2021/01/24 08:48:07;;;;;;;2.00;1.73;;;10.40;75.40;;;;;;5083434;28;20100;-41
2021/01/24 08:50:35;;;;;;;1.70;1.60;;;10.30;75.30;;;;;;5081947;28;20048;-42
2021/01/24 08:53:02;;;;;;;2.88;1.90;;;10.30;75.30;;;;;;5100322;28;20039;-42
2021/01/24 08:55:29;;;;;;;2.33;1.58;;;10.30;75.30;;;;;;5102106;28;20065;-41
2021/01/24 08:57:55;;;;;;;2.42;1.92;;;10.30;75.30;;;;;;5103433;28;20060;-41
2021/01/24 09:00:22;;;;;;;2.42;1.92;;;10.30;75.30;;;;;;5102311;28;20118;-41
2021/01/24 09:02:49;;;;;;;2.30;1.90;;;10.30;75.40;;;;;;5095289;28;20088;-41
2021/01/24 09:05:28;;;;;;;2.22;2.03;;;10.30;75.30;;;;;;5083835;28;20059;-42
2021/01/24 09:07:57;;;;;;;2.50;2.00;;;10.30;75.40;;;;;;5063120;28;20052;-41
2021/01/24 09:10:31;;;;;;;1.95;1.70;;;10.30;76.10;;;;;;5066046;28;20045;-41
2021/01/24 09:13:01;;;;;;;2.45;1.80;;;10.30;75.50;;;;;;5083007;28;20028;-41
2021/01/24 09:15:28;;;;;;;2.28;1.80;;;10.30;75.40;;;;;;5083009;28;20063;-41
2021/01/24 09:17:55;;;;;;;;;;;10.20;75.40;;;;;;5083628;28;20040;-41
2021/01/24 09:20:21;;;;;;;2.17;1.90;;;10.20;75.40;;;;;;5083798;28;19908;-41
2021/01/24 09:22:48;;;;;;;3.38;1.90;;;10.20;75.40;;;;;;5081640;28;20059;-41
2021/01/24 09:25:14;;;;;;;2.67;2.13;;;10.20;75.50;;;;;;5082295;28;20103;-41
2021/01/24 09:27:41;;;;;;;2.47;1.80;;;10.20;75.50;;;;;;5083017;28;20031;-41
2021/01/24 09:30:14;;;;;;;2.67;2.08;;;10.20;75.50;;;;;;5082799;28;20025;-41
2021/01/24 09:32:40;;;;;;;2.65;1.83;;;10.20;75.40;;;;;;5082913;28;20040;-41
2021/01/24 09:35:07;;;;;;;2.85;2.10;;;10.20;75.50;;;;;;5082911;28;20028;-42
2021/01/24 09:37:33;;;;;;;1.88;1.33;;;10.20;75.50;;;;;;5082698;28;20040;-41
2021/01/24 09:39:59;;;;;;;2.67;2.10;;;10.20;75.60;;;;;;5083112;28;20094;-40
2021/01/24 09:42:26;;;;;;;1.95;1.70;;;10.10;75.50;;;;;;5077239;28;20021;-42
2021/01/24 09:44:52;;;;;;;2.25;1.70;;;10.10;76.20;;;;;;5079182;28;20046;-44
2021/01/24 09:47:18;;;;;;;3.42;2.05;;;10.10;75.50;;;;;;5080155;28;20032;-41
2021/01/24 09:49:44;;;;;;;2.08;1.52;;;10.10;75.50;;;;;;5075485;28;20052;-42
2021/01/24 09:52:10;;;;;;;3.58;2.00;;;10.10;75.50;;;;;;5076739;28;20488;-42
2021/01/24 09:54:36;;;;;;;2.30;1.73;;;10.10;75.50;;;;;;5079845;28;20077;-43
2021/01/24 09:57:03;;;;;;;2.25;1.90;;;10.10;75.60;;;;;;5087498;28;20040;-41
2021/01/24 09:59:29;;;;;;;1.77;1.67;;;10.10;75.60;;;;;;5076372;28;20056;-41
2021/01/24 10:01:55;;;;;;;2.15;1.70;;;10.10;75.60;;;;;;5074195;28;20031;-43
2021/01/24 10:04:21;;;;;;;3.08;2.25;;;10.10;75.60;;;;;;5071406;28;20033;-41
2021/01/24 10:06:47;;;;;;;2.40;1.70;;;10.10;75.60;;;;;;5078592;28;20028;-41
2021/01/24 10:09:14;;;;;;;2.50;1.98;;;10.00;75.60;;;;;;5073802;28;20067;-42
2021/01/24 10:11:42;;;;;;;2.00;1.60;;;10.00;75.60;;;;;;5081476;28;20031;-41
2021/01/24 10:14:08;;;;;;;1.95;1.75;;;10.00;75.60;;;;;;5102781;28;20071;-40
2021/01/24 10:16:35;;;;;;;2.05;1.60;;;10.00;75.60;;;;;;5101102;28;20050;-41
2021/01/24 10:19:01;;;;;;;2.20;1.90;;;10.00;75.60;;;;;;5102823;28;20039;-41
2021/01/24 10:21:27;;;;;;;2.38;1.95;;;10.00;75.70;;;;;;5102780;28;20046;-41
2021/01/24 10:23:53;;;;;;;1.50;1.40;;;10.00;75.70;;;;;;5102748;28;20036;-43
2021/01/24 10:26:19;;;;;;;2.03;1.70;;;10.00;75.70;;;;;;5102749;28;20050;-40
2021/01/24 10:28:45;;;;;;;2.50;1.90;;;10.00;75.70;;;;;;5102703;28;20036;-41
2021/01/24 10:31:12;;;;;;;2.67;1.88;;;9.90;75.60;;;;;;5102676;28;20024;-41
2021/01/24 10:33:38;;;;;;;2.42;2.10;;;9.90;75.70;;;;;;5098386;28;20036;-41
2021/01/24 10:36:04;;;;;;;2.30;1.73;;;9.90;75.70;;;;;;5082707;28;20056;-44
2021/01/24 10:38:31;;;;;;;1.80;1.63;;;9.90;75.70;;;;;;5085701;28;20036;-43
2021/01/24 10:40:57;;;;;;;2.20;1.70;;;9.90;75.70;;;;;;5086494;28;20017;-41
2021/01/24 10:43:23;;;;;;;2.58;1.90;;;9.90;75.70;;;;;;5085865;28;20096;-41
2021/01/24 10:45:49;;;;;;;1.85;1.67;;;9.90;75.70;;;;;;5085511;28;20028;-40
2021/01/24 10:48:15;;;;;;;2.47;2.10;;;9.90;75.70;;;;;;5085785;28;20105;-41
2021/01/24 10:50:42;;;;;;;3.25;1.83;;;9.90;75.70;;;;;;5085773;28;20021;-42
2021/01/24 10:53:08;;;;;;;1.95;1.65;;;9.90;75.70;;;;;;5085170;28;20028;-41
2021/01/24 10:55:35;;;;;;;2.72;2.05;;;9.80;75.70;;;;;;5084238;28;20024;-41
2021/01/24 10:58:01;;;;;;;2.67;1.90;;;9.80;75.70;;;;;;5085285;28;20133;-42
2021/01/24 11:00:27;;;;;;;3.75;1.83;;;9.80;75.70;;;;;;5086799;28;20035;-42
2021/01/24 11:02:53;;;;;;;1.40;1.25;;;9.80;76.40;;;;;;5088051;28;20507;-43
2021/01/24 11:05:19;;;;;;;2.10;1.63;;;9.80;75.70;;;;;;5085422;28;20092;-41
2021/01/24 11:07:46;;;;;;;2.00;1.80;;;9.80;75.70;;;;;;5084982;28;20032;-41
2021/01/24 11:10:12;;;;;;;2.58;1.70;;;9.80;75.80;;;;;;5085774;28;20024;-42
2021/01/24 11:12:38;;;;;;;2.40;2.20;;;9.80;75.80;;;;;;5082298;28;20074;-41
2021/01/24 11:15:05;;;;;;;2.35;1.83;;;9.70;75.70;;;;;;5086557;28;20261;-41
2021/01/24 11:17:32;;;;;;;2.05;1.80;;;9.80;76.00;;;;;;5082849;28;20123;-41
2021/01/24 11:19:59;;;;;;;3.28;2.00;;;9.70;75.70;;;;;;5078338;28;20033;-41
2021/01/24 11:22:25;;;;;;;2.13;1.83;;;9.70;75.70;;;;;;5088752;28;20035;-41
2021/01/24 11:24:51;;;;;;;3.10;2.20;;;9.70;75.70;;;;;;5079231;28;20097;-45
2021/01/24 11:27:17;;;;;;;1.98;1.73;;;9.70;75.70;;;;;;5080459;28;20746;-41
2021/01/24 11:29:43;;;;;;;2.70;1.92;;;9.70;75.70;;;;;;5081868;28;20031;-40
2021/01/24 11:32:10;;;;;;;1.92;1.73;;;9.70;75.80;;;;;;5082580;28;20110;-43
2021/01/24 11:34:36;;;;;;;2.33;1.88;;;9.70;75.70;;;;;;5084244;28;20028;-42
2021/01/24 11:37:03;;;;;;;2.05;1.85;;;9.60;75.70;;;;;;5078621;28;20054;-42
2021/01/24 11:39:29;;;;;;;2.70;1.90;;;9.60;75.70;;;;;;5088162;28;20029;-42
2021/01/24 11:41:56;;;;;;;2.53;2.10;;;9.60;75.70;;;;;;5079867;28;20021;-41
2021/01/24 11:44:23;;;;;;;2.80;1.80;;;9.60;75.70;;;;;;5064653;28;20155;-41
2021/01/24 11:46:50;;;;;;;2.17;1.92;;;9.60;75.80;;;;;;5063743;28;20032;-41
2021/01/24 11:49:16;;;;;;;1.95;1.70;;;9.60;75.80;;;;;;5064651;28;20017;-41
2021/01/24 11:51:43;;;;;;;2.05;1.73;;;9.60;75.80;;;;;;5075736;28;20063;-47
2021/01/24 11:54:09;;;;;;;2.50;1.88;;;9.60;75.70;;;;;;5084315;28;20028;-41
2021/01/24 11:56:35;;;;;;;2.35;1.85;;;9.50;75.70;;;;;;5084159;28;20032;-41
2021/01/24 11:59:01;;;;;;;2.13;1.67;;;9.60;75.70;;;;;;5083007;28;20055;-41
2021/01/24 12:01:27;;;;;;;2.83;1.88;;;9.50;75.70;;;;;;5084320;28;20028;-42
2021/01/24 12:03:53;;;;;;;2.20;1.73;;;9.50;75.70;;;;;;5084332;28;20507;-41
2021/01/24 12:06:19;;;;;;;3.95;2.22;;;9.50;75.80;;;;;;5084214;28;20092;-41
2021/01/24 12:08:46;;;;;;;2.28;1.80;;;9.50;75.80;;;;;;5083615;28;20028;-42
2021/01/24 12:11:12;;;;;;;1.75;1.65;;;9.50;75.80;;;;;;5084765;28;20034;-41
2021/01/24 12:13:38;;;;;;;2.35;1.80;;;9.50;75.80;;;;;;5083840;28;20025;-40
2021/01/24 12:16:05;;;;;;;3.88;1.73;;;9.50;75.80;;;;;;5084056;28;20028;-41
2021/01/24 12:18:31;;;;;;;2.40;1.83;;;9.50;75.90;;;;;;5083801;28;20037;-42
2021/01/24 12:20:57;;;;;;;2.35;1.90;;;9.50;75.90;;;;;;5083923;28;20043;-41
2021/01/24 12:23:23;;;;;;;2.85;2.03;;;9.40;75.80;;;;;;5083712;28;20030;-41
2021/01/24 12:25:49;;;;;;;2.53;2.10;;;9.40;75.80;;;;;;5084016;28;20019;-41
2021/01/24 12:28:16;;;;;;;3.00;1.90;;;9.40;75.80;;;;;;5083574;28;20036;-42
2021/01/24 12:30:42;;;;;;;2.50;2.05;;;9.40;75.80;;;;;;5083930;28;20048;-41
2021/01/24 12:33:12;;;;;;;2.55;1.83;;;9.40;75.90;;;;;;5083900;28;20032;-41
2021/01/24 12:35:41;;;;;;;2.67;1.88;;;9.40;75.90;;;;;;5083433;28;20021;-43
2021/01/24 12:38:08;;;;;;;2.83;2.05;;;9.40;75.90;;;;;;5081958;28;20435;-41
2021/01/24 12:40:34;;;;;;;2.47;2.20;;;9.40;75.90;;;;;;5084254;28;20066;-40
2021/01/24 12:43:00;;;;;;;2.42;1.83;;;9.40;75.90;;;;;;5083607;28;20039;-40
2021/01/24 12:45:26;;;;;;;2.58;1.92;;;9.30;75.90;;;;;;5083452;28;20032;-40
2021/01/24 12:47:53;;;;;;;2.70;1.95;;;9.30;75.90;;;;;;5083156;28;20052;-43
2021/01/24 12:50:19;;;;;;;3.20;2.05;;;9.30;76.00;;;;;;5065324;28;20031;-41
2021/01/24 12:52:48;;;;;;;1.95;1.63;;;9.30;76.00;;;;;;5083119;28;20024;-43
2021/01/24 12:55:14;;;;;;;2.65;2.17;;;9.30;76.00;;;;;;5082098;28;20020;-41